createdAt,value
2018-03-06T00:02:12.687Z,14.00
2018-03-06T00:04:40.998Z,15.27
2018-03-06T00:07:09.027Z,13.30
2018-03-06T00:09:37.334Z,14.40
2018-03-06T00:12:05.633Z,13.77
2018-03-06T00:14:33.183Z,14.57
2018-03-06T00:17:00.738Z,14.00
2018-03-06T00:19:28.255Z,13.00
2018-03-06T00:21:56.998Z,11.10
2018-03-06T00:24:26.281Z,15.60
2018-03-06T00:26:53.809Z,16.00
2018-03-06T00:29:22.109Z,12.73
2018-03-06T00:31:49.636Z,14.70
2018-03-06T00:34:18.517Z,19.83
2018-03-06T00:36:46.112Z,16.07
2018-03-06T00:39:14.391Z,14.63
2018-03-06T00:41:41.931Z,15.23
2018-03-06T00:44:10.228Z,18.67
2018-03-06T00:46:37.774Z,18.80
2018-03-06T00:49:06.105Z,21.10
2018-03-06T00:51:33.671Z,17.80
2018-03-06T00:54:05.298Z,21.40
2018-03-06T00:56:32.857Z,18.33
2018-03-06T00:59:00.406Z,16.10
2018-03-06T01:01:27.937Z,19.07
2018-03-06T01:03:56.390Z,20.23
2018-03-06T01:06:23.942Z,18.97
2018-03-06T01:08:51.840Z,15.10
2018-03-06T01:11:19.368Z,16.87
2018-03-06T01:13:46.898Z,19.67
2018-03-06T01:16:14.441Z,22.30
2018-03-06T01:18:43.507Z,23.90
2018-03-06T01:21:11.070Z,21.87
2018-03-06T01:23:38.630Z,21.03
2018-03-06T01:26:06.804Z,20.20
2018-03-06T01:28:34.337Z,21.93
2018-03-06T01:31:06.203Z,22.47
2018-03-06T01:33:33.786Z,23.33
2018-03-06T01:36:01.308Z,20.93
2018-03-06T01:38:30.202Z,25.07
2018-03-06T01:40:58.168Z,21.73
2018-03-06T01:43:25.726Z,22.93
2018-03-06T01:45:53.288Z,22.17
2018-03-06T01:48:20.940Z,19.33
2018-03-06T01:50:48.481Z,22.07
2018-03-06T01:53:16.013Z,22.20
2018-03-06T01:55:45.140Z,25.13
2018-03-06T01:58:16.759Z,21.13
2018-03-06T02:00:44.304Z,25.17
2018-03-06T02:03:12.064Z,22.57
2018-03-06T02:05:39.611Z,25.60
2018-03-06T02:08:07.146Z,24.80
2018-03-06T02:10:34.722Z,25.00
2018-03-06T02:13:02.274Z,28.07
2018-03-06T02:15:30.613Z,26.37
2018-03-06T02:17:58.922Z,25.33
2018-03-06T02:20:26.464Z,22.20
2018-03-06T02:22:58.876Z,27.23
2018-03-06T02:25:26.443Z,26.83
2018-03-06T02:27:54.060Z,24.93
2018-03-06T02:30:22.939Z,22.47
2018-03-06T02:32:51.254Z,23.27
2018-03-06T02:35:18.827Z,20.53
2018-03-06T02:37:50.907Z,19.77
2018-03-06T02:40:18.481Z,17.73
2018-03-06T02:42:46.569Z,18.07
2018-03-06T02:45:15.137Z,16.37
2018-03-06T02:47:42.680Z,17.23
2018-03-06T02:50:14.427Z,17.97
2018-03-06T02:52:41.982Z,16.73
2018-03-06T02:55:09.639Z,21.70
2018-03-06T02:57:37.179Z,17.57
2018-03-06T03:00:04.720Z,22.03
2018-03-06T03:02:33.370Z,21.33
2018-03-06T03:05:01.045Z,21.43
2018-03-06T03:07:28.573Z,33.40
2018-03-06T03:09:56.791Z,33.10
2018-03-06T03:12:25.167Z,32.40
2018-03-06T03:14:53.623Z,37.20
2018-03-06T03:17:21.161Z,40.83
2018-03-06T03:19:48.726Z,42.37
2018-03-06T03:22:16.848Z,42.73
2018-03-06T03:24:44.384Z,38.63
2018-03-06T03:27:12.248Z,42.87
2018-03-06T03:29:44.512Z,36.17
2018-03-06T03:32:12.723Z,38.67
2018-03-06T03:34:40.253Z,43.10
2018-03-06T03:37:07.784Z,47.33
2018-03-06T03:39:35.994Z,43.53
2018-03-06T03:42:03.843Z,42.60
2018-03-06T03:44:31.382Z,45.37
2018-03-06T03:56:50.329Z,44.53
2018-03-06T03:59:19.916Z,51.33
2018-03-06T04:01:51.297Z,49.77
2018-03-06T04:04:19.865Z,56.57
2018-03-06T04:06:48.142Z,50.67
2018-03-06T04:09:15.664Z,48.97
2018-03-06T04:11:43.201Z,55.33
2018-03-06T04:14:10.802Z,50.13
2018-03-06T04:16:38.353Z,56.33
2018-03-06T04:19:09.461Z,52.20
2018-03-06T04:21:37.572Z,59.97
2018-03-06T04:24:05.096Z,60.50
2018-03-06T04:26:33.436Z,62.17
2018-03-06T04:29:02.191Z,63.13
2018-03-06T04:31:29.793Z,61.83
2018-03-06T04:33:57.380Z,64.47
2018-03-06T04:36:25.325Z,66.37
2018-03-06T04:39:01.011Z,70.23
2018-03-06T04:41:29.645Z,63.57
2018-03-06T04:43:57.187Z,66.37
2018-03-06T04:46:24.738Z,65.47
2018-03-06T04:48:52.305Z,60.23
2018-03-06T04:51:24.366Z,61.43
2018-03-06T04:53:51.920Z,58.73
2018-03-06T04:56:19.562Z,59.10
2018-03-06T04:58:49.431Z,59.93
2018-03-06T05:01:20.830Z,66.70
2018-03-06T05:03:49.755Z,69.30
2018-03-06T05:06:17.277Z,71.70
2018-03-06T05:08:44.809Z,71.53
2018-03-06T05:11:16.675Z,71.43
2018-03-06T05:13:48.123Z,61.37
2018-03-06T05:16:16.677Z,66.77
2018-03-06T05:18:44.210Z,64.03
2018-03-06T05:21:12.830Z,57.93
2018-03-06T05:23:44.101Z,59.40
2018-03-06T05:26:15.937Z,63.70
2018-03-06T05:28:43.487Z,74.10
2018-03-06T05:31:11.034Z,70.33
2018-03-06T05:33:39.717Z,70.90
2018-03-06T05:36:07.250Z,78.07
2018-03-06T05:38:34.792Z,72.87
2018-03-06T05:41:06.588Z,84.60
2018-03-06T05:43:36.623Z,86.63
2018-03-06T05:46:06.664Z,96.57
2018-03-06T05:48:34.216Z,82.70
2018-03-06T05:51:01.768Z,91.33
2018-03-06T05:53:29.304Z,89.67
2018-03-06T05:55:57.603Z,94.67
2018-03-06T05:58:25.242Z,82.53
2018-03-06T06:00:53.264Z,90.93
2018-03-06T06:03:23.408Z,92.93
2018-03-06T06:05:51.640Z,95.23
2018-03-06T06:08:19.168Z,95.50
2018-03-06T06:10:49.141Z,75.57
2018-03-06T06:13:16.767Z,95.67
2018-03-06T06:15:44.723Z,82.77
2018-03-06T06:18:13.030Z,92.17
2018-03-06T06:20:41.740Z,99.60
2018-03-06T06:23:09.995Z,99.03
2018-03-06T06:25:39.042Z,105.13
2018-03-06T06:28:06.598Z,99.17
2018-03-06T06:30:38.063Z,102.63
2018-03-06T06:33:14.012Z,107.37
2018-03-06T06:35:45.892Z,105.10
2018-03-06T06:38:15.992Z,114.93
2018-03-06T06:40:43.500Z,100.83
2018-03-06T06:43:11.132Z,91.17
2018-03-06T06:45:39.754Z,93.63
2018-03-06T06:48:11.158Z,99.23
2018-03-06T06:50:39.501Z,99.57
2018-03-06T06:53:07.016Z,104.70
2018-03-06T06:55:38.659Z,102.40
2018-03-06T06:58:06.950Z,104.40
2018-03-06T07:00:35.032Z,100.83
2018-03-06T07:03:02.561Z,101.37
2018-03-06T07:05:31.594Z,99.97
2018-03-06T07:07:59.116Z,96.20
2018-03-06T07:10:27.418Z,95.90
2018-03-06T07:12:54.964Z,100.57
2018-03-06T07:15:23.242Z,98.93
2018-03-06T07:17:51.530Z,86.73
2018-03-06T07:20:19.051Z,85.37
2018-03-06T07:22:46.586Z,90.43
2018-03-06T07:25:14.103Z,89.37
2018-03-06T07:27:41.898Z,87.57
2018-03-06T07:30:09.446Z,84.50
2018-03-06T07:32:36.980Z,90.70
2018-03-06T07:35:05.285Z,88.03
2018-03-06T07:37:37.697Z,86.30
2018-03-06T07:40:05.281Z,74.27
2018-03-06T07:42:34.172Z,82.13
2018-03-06T07:45:03.491Z,80.70
2018-03-06T07:47:31.008Z,79.40
2018-03-06T07:50:02.723Z,81.00
2018-03-06T07:52:30.301Z,79.03
2018-03-06T07:55:01.639Z,80.80
2018-03-06T07:57:30.348Z,74.47
2018-03-06T07:59:57.868Z,78.77
2018-03-06T08:02:25.499Z,81.33
2018-03-06T08:04:53.037Z,80.50
2018-03-06T08:07:20.565Z,80.87
2018-03-06T08:09:48.398Z,78.33
2018-03-06T08:12:16.760Z,80.17
2018-03-06T08:14:45.631Z,78.23
2018-03-06T08:17:17.857Z,78.33
2018-03-06T08:19:45.672Z,81.70
2018-03-06T08:22:13.222Z,76.27
2018-03-06T08:24:40.769Z,81.97
2018-03-06T08:27:09.665Z,77.60
2018-03-06T08:29:37.181Z,78.80
2018-03-06T08:32:10.191Z,74.87
2018-03-06T08:34:38.278Z,79.80
2018-03-06T08:37:05.823Z,75.50
2018-03-06T08:39:33.356Z,77.83
2018-03-06T08:42:05.481Z,78.97
2018-03-06T08:44:33.022Z,77.27
2018-03-06T08:47:04.570Z,80.50
2018-03-06T08:49:34.176Z,75.40
2018-03-06T08:52:01.839Z,75.27
2018-03-06T08:54:29.389Z,76.47
2018-03-06T08:57:02.431Z,80.63
2018-03-06T08:59:34.013Z,75.90
2018-03-06T09:02:02.311Z,78.10
2018-03-06T09:04:30.297Z,78.10
2018-03-06T09:06:57.829Z,80.03
2018-03-06T09:09:25.436Z,79.10
2018-03-06T09:11:54.499Z,79.97
2018-03-06T09:27:22.917Z,81.30
2018-03-06T09:29:53.176Z,72.80
2018-03-06T09:32:21.090Z,75.67
2018-03-06T09:34:48.642Z,81.73
2018-03-06T09:37:20.913Z,73.33
2018-03-06T09:39:48.438Z,73.20
2018-03-06T17:25:39.270Z,83.40
2018-03-06T17:28:07.332Z,82.10
2018-03-06T17:30:34.858Z,83.47
